createdAt,value
2019-03-02T00:00:02.088Z,80.43
2019-03-02T00:02:12.349Z,80.61
2019-03-02T00:04:23.200Z,80.83
2019-03-02T00:06:35.716Z,80.87
2019-03-02T00:08:46.726Z,81.00
2019-03-02T00:10:57.506Z,80.85
2019-03-02T00:13:08.733Z,80.91
2019-03-02T00:15:21.043Z,81.08
2019-03-02T00:17:31.846Z,81.09
2019-03-02T00:19:42.685Z,81.06
2019-03-02T00:21:53.441Z,80.92
2019-03-02T00:24:04.252Z,81.16
2019-03-02T00:26:35.320Z,81.34
2019-03-02T00:28:46.150Z,81.46
2019-03-02T00:30:57.884Z,81.42
2019-03-02T00:33:11.458Z,81.47
2019-03-02T00:35:22.481Z,81.60
2019-03-02T00:37:33.768Z,81.64
2019-03-02T00:39:46.029Z,81.32
2019-03-02T00:41:56.907Z,81.52
2019-03-02T00:44:51.234Z,81.64
2019-03-02T00:47:02.172Z,81.68
2019-03-02T00:49:13.010Z,81.72
2019-03-02T00:51:23.812Z,81.88
2019-03-02T00:53:35.582Z,82.01
2019-03-02T00:55:47.322Z,82.01
2019-03-02T00:57:58.117Z,81.69
2019-03-02T01:00:28.804Z,81.72
2019-03-02T01:02:40.446Z,81.82
2019-03-02T01:04:52.556Z,81.77
2019-03-02T01:09:35.694Z,82.04
2019-03-02T01:11:46.513Z,82.03
2019-03-02T01:13:57.652Z,81.91
2019-03-02T01:16:10.041Z,81.92
2019-03-02T01:18:21.266Z,82.07
2019-03-02T01:20:33.588Z,82.09
2019-03-02T01:22:44.406Z,81.90
2019-03-02T01:24:55.212Z,81.77
2019-03-02T01:27:06.051Z,81.76
2019-03-02T01:29:19.117Z,81.88
2019-03-02T01:31:29.655Z,81.55
2019-03-02T01:33:40.454Z,81.60
2019-03-02T01:35:53.931Z,81.79
2019-03-02T01:38:04.019Z,81.78
2019-03-02T01:40:14.949Z,81.70
2019-03-02T01:42:29.395Z,81.40
2019-03-02T01:44:38.570Z,81.32
2019-03-02T01:46:49.403Z,81.72
2019-03-02T01:49:01.548Z,81.59
2019-03-02T01:51:12.922Z,81.43
2019-03-02T01:53:23.880Z,81.35
2019-03-02T01:55:34.668Z,81.25
2019-03-02T01:57:48.857Z,80.84
2019-03-02T01:59:58.180Z,80.92
2019-03-02T02:02:09.084Z,81.10
2019-03-02T02:04:22.735Z,81.39
2019-03-02T02:06:32.609Z,81.33
2019-03-02T02:08:43.421Z,81.36
2019-03-02T02:10:54.209Z,81.40
2019-03-02T02:13:06.306Z,81.30
2019-03-02T02:15:37.787Z,81.15
2019-03-02T02:17:49.565Z,81.38
2019-03-02T02:20:01.538Z,81.67
2019-03-02T02:22:12.352Z,81.83
2019-03-02T02:24:24.825Z,82.26
2019-03-02T02:26:35.982Z,82.35
2019-03-02T02:28:46.784Z,82.65
2019-03-02T02:31:01.624Z,82.75
2019-03-02T02:33:10.328Z,82.85
2019-03-02T02:35:21.134Z,82.87
2019-03-02T02:37:36.559Z,82.48
2019-03-02T02:39:44.776Z,82.52
2019-03-02T02:41:59.950Z,82.72
2019-03-02T02:44:08.269Z,82.54
2019-03-02T02:46:19.056Z,82.58
2019-03-02T02:48:31.227Z,82.56
2019-03-02T02:50:43.090Z,82.40
2019-03-02T02:52:55.280Z,82.33
2019-03-02T02:55:47.749Z,81.97
2019-03-02T02:57:58.559Z,81.96
2019-03-02T03:00:55.044Z,81.85
2019-03-02T03:03:03.756Z,81.71
2019-03-02T03:05:56.221Z,81.80
2019-03-02T03:08:07.024Z,81.93
2019-03-02T03:13:01.853Z,81.33
2019-03-02T03:15:09.881Z,80.77
2019-03-02T03:17:20.778Z,80.37
2019-03-02T03:19:32.416Z,80.55
2019-03-02T03:21:44.365Z,79.58
2019-03-02T03:24:02.974Z,79.56
2019-03-02T03:26:07.994Z,79.55
2019-03-02T03:28:18.812Z,79.75
2019-03-02T03:30:35.680Z,79.54
2019-03-02T03:32:54.614Z,79.28
2019-03-02T03:34:55.039Z,78.75
2019-03-02T03:37:08.311Z,78.68
2019-03-02T03:39:18.535Z,78.48
2019-03-02T03:41:29.374Z,78.61
2019-03-02T03:43:42.865Z,79.14
2019-03-02T03:45:52.950Z,78.56
2019-03-02T03:48:03.742Z,78.66
2019-03-02T03:50:15.842Z,78.87
2019-03-02T03:52:27.352Z,78.73
2019-03-02T03:54:40.978Z,78.86
2019-03-02T03:57:32.508Z,79.02
2019-03-02T03:59:43.421Z,78.80
2019-03-02T04:01:56.849Z,78.27
2019-03-02T04:04:06.933Z,78.47
2019-03-02T04:06:17.835Z,78.67
2019-03-02T04:08:29.862Z,78.94
2019-03-02T04:10:41.384Z,78.85
2019-03-02T04:12:52.190Z,78.69
2019-03-02T04:15:44.662Z,78.64
2019-03-02T04:17:55.483Z,78.77
2019-03-02T04:20:49.642Z,78.49
2019-03-02T04:23:42.314Z,78.50
2019-03-02T04:25:56.672Z,78.78
2019-03-02T04:28:05.832Z,78.80
2019-03-02T04:30:16.622Z,78.75
2019-03-02T04:32:28.852Z,78.75
2019-03-02T04:34:40.179Z,78.63
2019-03-02T04:36:50.966Z,78.52
2019-03-02T04:39:01.882Z,78.45
2019-03-02T04:41:12.690Z,78.45
2019-03-02T04:43:23.517Z,78.36
2019-03-02T04:45:36.462Z,78.28
2019-03-02T04:47:47.026Z,78.02
2019-03-02T04:49:57.844Z,77.92
2019-03-02T04:52:11.574Z,78.33
2019-03-02T04:54:21.388Z,78.16
2019-03-02T04:56:32.176Z,78.21
2019-03-02T04:58:43.629Z,78.23
2019-03-02T05:00:55.719Z,78.22
2019-03-02T05:03:06.519Z,78.28
2019-03-02T05:05:17.345Z,78.04
2019-03-02T05:07:30.160Z,77.95
2019-03-02T05:09:40.873Z,77.77
2019-03-02T05:11:51.701Z,77.49
2019-03-02T05:14:04.288Z,77.24
2019-03-02T05:16:15.294Z,77.10
2019-03-02T05:18:26.117Z,77.11
2019-03-02T05:20:37.805Z,77.27
2019-03-02T05:22:50.722Z,77.10
2019-03-02T05:25:43.994Z,76.95
2019-03-02T05:27:54.794Z,77.27
2019-03-02T05:30:26.860Z,77.22
2019-03-02T05:32:38.201Z,77.01
2019-03-02T05:34:49.028Z,76.57
2019-03-02T05:37:02.809Z,76.60
2019-03-02T05:39:13.844Z,76.66
2019-03-02T05:41:25.297Z,76.56
2019-03-02T05:43:36.094Z,76.42
2019-03-02T05:45:46.925Z,76.28
2019-03-02T05:48:01.012Z,76.27
2019-03-02T05:50:52.115Z,75.90
2019-03-02T05:53:03.026Z,76.03
2019-03-02T05:55:18.053Z,76.07
2019-03-02T05:57:26.536Z,76.08
2019-03-02T05:59:37.338Z,76.08
2019-03-02T06:01:48.182Z,76.14
2019-03-02T06:03:58.987Z,75.67
2019-03-02T06:06:09.821Z,75.74
2019-03-02T06:08:40.509Z,76.15
2019-03-02T06:10:51.338Z,76.15
2019-03-02T06:13:02.149Z,76.25
2019-03-02T06:18:07.733Z,76.33
2019-03-02T06:20:18.302Z,76.52
2019-03-02T06:22:29.117Z,76.59
2019-03-02T06:24:41.025Z,76.67
2019-03-02T06:29:32.741Z,76.64
2019-03-02T06:31:44.260Z,76.75
2019-03-02T06:33:55.303Z,76.67
2019-03-02T06:36:08.750Z,76.65
2019-03-02T06:38:18.864Z,76.52
2019-03-02T06:40:29.676Z,76.45
2019-03-02T06:42:41.940Z,76.61
2019-03-02T06:44:53.266Z,76.80
2019-03-02T06:47:05.704Z,76.88
2019-03-02T06:49:19.857Z,76.89
2019-03-02T06:51:29.509Z,76.92
2019-03-02T06:53:40.333Z,77.03
2019-03-02T06:55:51.131Z,76.95
2019-03-02T06:58:01.973Z,77.03
2019-03-02T07:00:54.420Z,76.89
2019-03-02T07:03:06.706Z,76.53
2019-03-02T07:05:17.938Z,77.05
2019-03-02T07:07:28.734Z,77.58
2019-03-02T07:09:41.807Z,78.44
2019-03-02T07:11:52.269Z,78.72
2019-03-02T07:14:03.092Z,78.95
2019-03-02T07:16:16.589Z,79.05
2019-03-02T07:18:46.491Z,79.07
2019-03-02T07:20:59.637Z,79.36
2019-03-02T07:23:10.038Z,79.48
2019-03-02T07:25:20.995Z,79.43
2019-03-02T07:27:31.788Z,79.72
2019-03-02T07:29:42.719Z,79.69
2019-03-02T07:31:53.520Z,80.00
2019-03-02T07:34:04.829Z,80.02
2019-03-02T07:36:17.069Z,79.99
2019-03-02T07:38:27.854Z,79.97
2019-03-02T07:40:41.304Z,79.96
2019-03-02T07:42:51.381Z,79.82
2019-03-02T07:45:43.853Z,79.78
2019-03-02T07:47:56.023Z,79.64
2019-03-02T07:50:49.059Z,79.55
2019-03-02T07:52:59.880Z,79.43
2019-03-02T07:55:53.623Z,79.49
2019-03-02T07:58:05.082Z,79.35
2019-03-02T08:00:57.558Z,79.25
2019-03-02T08:03:08.372Z,79.35
2019-03-02T08:05:19.294Z,78.92
2019-03-02T08:07:30.128Z,78.90
2019-03-02T08:09:40.936Z,78.88
2019-03-02T08:12:33.406Z,78.59
2019-03-02T08:14:44.485Z,78.40
2019-03-02T08:16:56.971Z,77.96
2019-03-02T08:19:07.786Z,78.00
2019-03-02T08:21:18.634Z,77.82
2019-03-02T08:23:29.489Z,77.99
2019-03-02T08:25:40.295Z,78.05
2019-03-02T08:27:51.701Z,77.83
2019-03-02T08:30:45.580Z,78.05
2019-03-02T08:32:57.895Z,77.98
2019-03-02T08:35:50.755Z,77.92
2019-03-02T08:38:05.068Z,77.78
2019-03-02T08:40:56.235Z,77.50
2019-03-02T08:43:08.801Z,77.42
2019-03-02T08:45:19.688Z,77.21
2019-03-02T08:47:30.515Z,77.26
2019-03-02T08:49:41.868Z,77.09
2019-03-02T08:51:54.040Z,76.85
2019-03-02T08:54:04.852Z,76.88
2019-03-02T08:56:15.699Z,76.96
2019-03-02T08:58:26.750Z,76.54
2019-03-02T09:00:38.989Z,76.41
2019-03-02T09:02:50.474Z,76.04
2019-03-02T09:05:01.287Z,76.04
2019-03-02T09:07:12.186Z,75.94
2019-03-02T09:09:23.109Z,75.28
2019-03-02T09:11:33.944Z,75.61
2019-03-02T09:13:44.775Z,75.72
2019-03-02T09:15:55.587Z,75.74
2019-03-02T09:18:06.521Z,75.76
2019-03-02T09:20:17.446Z,75.71
2019-03-02T09:22:28.294Z,75.76
2019-03-02T09:24:39.090Z,75.54
2019-03-02T09:26:49.890Z,75.25
2019-03-02T09:29:00.755Z,75.28
2019-03-02T09:31:53.202Z,75.44
2019-03-02T09:34:04.364Z,74.19
2019-03-02T09:36:16.755Z,74.02
2019-03-02T09:38:27.584Z,73.48
2019-03-02T09:40:38.419Z,75.00
2019-03-02T09:42:49.332Z,72.84
2019-03-02T09:45:00.319Z,71.51
2019-03-02T09:47:12.739Z,72.65
2019-03-02T09:49:23.924Z,72.35
2019-03-02T09:51:34.746Z,71.69
2019-03-02T09:53:45.678Z,70.64
2019-03-02T09:55:58.146Z,70.47
2019-03-02T09:58:09.225Z,70.64
2019-03-02T10:01:04.468Z,70.69
2019-03-02T10:03:14.444Z,70.61
2019-03-02T10:05:26.299Z,70.40
2019-03-02T10:07:39.236Z,69.76
2019-03-02T10:09:50.942Z,69.82
2019-03-02T10:12:01.869Z,70.77
2019-03-02T10:14:32.596Z,70.14
2019-03-02T10:16:43.405Z,69.04
2019-03-02T10:18:54.221Z,68.82
2019-03-02T10:21:05.167Z,69.22
2019-03-02T10:23:15.963Z,69.73
2019-03-02T10:25:32.023Z,69.69
2019-03-02T10:27:39.587Z,69.92
2019-03-02T10:29:50.404Z,70.07
2019-03-02T10:32:01.247Z,69.83
2019-03-02T10:34:12.101Z,70.21
2019-03-02T10:36:25.776Z,70.52
2019-03-02T10:38:35.679Z,70.71
2019-03-02T10:40:46.569Z,70.16
2019-03-02T10:42:57.377Z,69.98
2019-03-02T10:45:49.845Z,70.00
2019-03-02T10:48:00.650Z,71.06
2019-03-02T10:50:31.352Z,70.70
2019-03-02T10:52:42.180Z,70.07
2019-03-02T10:54:53.010Z,70.81
2019-03-02T10:57:03.863Z,70.04
2019-03-02T10:59:15.529Z,70.43
2019-03-02T11:01:27.543Z,70.75
2019-03-02T11:03:38.358Z,70.42
2019-03-02T11:06:09.042Z,70.98
2019-03-02T11:08:39.947Z,71.15
2019-03-02T11:11:10.630Z,70.08
2019-03-02T11:13:51.844Z,68.93
2019-03-02T11:16:22.750Z,68.77
2019-03-02T11:18:53.432Z,69.66
2019-03-02T11:21:24.163Z,69.78
2019-03-02T11:23:57.534Z,69.77
2019-03-02T11:26:27.418Z,70.04
2019-03-02T11:28:58.167Z,69.02
2019-03-02T11:31:28.846Z,69.30
2019-03-02T11:33:59.854Z,69.62
2019-03-02T11:36:30.601Z,69.55
2019-03-02T11:39:01.488Z,70.08
2019-03-02T11:44:04.627Z,68.90
2019-03-02T11:46:35.320Z,68.75
2019-03-02T11:51:27.150Z,69.54
2019-03-02T11:56:26.659Z,69.30
2019-03-02T11:58:52.089Z,68.92
2019-03-02T12:01:22.852Z,68.62
2019-03-02T12:03:53.557Z,68.82
2019-03-02T12:06:24.345Z,68.52
2019-03-02T12:08:57.929Z,68.43
2019-03-02T12:13:49.980Z,67.38
2019-03-02T12:16:22.021Z,66.76
2019-03-02T12:18:54.173Z,66.43
2019-03-02T12:21:25.990Z,66.47
2019-03-02T12:23:56.677Z,64.72
2019-03-02T12:26:27.372Z,64.60
2019-03-02T12:28:58.042Z,64.20
2019-03-02T12:31:31.908Z,63.96
2019-03-02T12:34:01.343Z,63.43
2019-03-02T12:36:32.046Z,64.41
2019-03-02T12:39:02.737Z,64.67
2019-03-02T12:41:33.484Z,63.47
2019-03-02T12:44:04.174Z,63.80
2019-03-02T12:49:15.482Z,64.35
2019-03-02T12:51:46.165Z,64.54
2019-03-02T12:54:16.834Z,64.34
2019-03-02T12:56:47.535Z,63.91
2019-03-02T13:06:18.414Z,65.68
2019-03-02T13:08:49.230Z,64.84
2019-03-02T13:13:52.763Z,65.29
2019-03-02T13:16:25.065Z,65.53
2019-03-02T13:18:55.794Z,65.94
2019-03-02T13:21:26.478Z,65.74
2019-03-02T13:26:15.547Z,65.28
2019-03-02T13:28:46.439Z,65.69
2019-03-02T13:33:49.550Z,65.73
2019-03-02T13:36:20.216Z,66.01
2019-03-02T13:38:50.950Z,65.64
2019-03-02T13:41:30.078Z,64.79
2019-03-02T13:43:54.377Z,64.23
2019-03-02T13:46:25.077Z,64.17
2019-03-02T13:48:58.289Z,63.63
2019-03-02T13:51:30.014Z,63.49
2019-03-02T13:56:33.446Z,64.20
2019-03-02T14:01:36.526Z,64.23
2019-03-02T14:08:57.991Z,64.58
2019-03-02T14:11:28.699Z,64.72
2019-03-02T14:13:59.372Z,64.68
2019-03-02T14:19:05.866Z,65.08
2019-03-02T14:21:38.762Z,64.55
2019-03-02T14:24:10.225Z,63.48
2019-03-02T14:31:21.141Z,63.27
2019-03-02T14:33:51.838Z,63.54
2019-03-02T14:36:22.737Z,62.45
2019-03-02T14:43:35.863Z,62.74
2019-03-02T14:46:07.202Z,63.19
2019-03-02T14:53:15.476Z,63.69
2019-03-02T15:00:37.037Z,62.71
2019-03-02T15:03:07.736Z,62.49
2019-03-02T15:05:38.536Z,62.81
2019-03-02T15:08:09.276Z,62.34
2019-03-02T15:10:39.968Z,62.51
2019-03-02T15:13:10.702Z,59.50
2019-03-02T15:15:41.485Z,59.74
2019-03-02T15:20:44.576Z,59.24
2019-03-02T15:25:47.642Z,60.05
2019-03-02T15:28:18.340Z,60.19
2019-03-02T15:30:49.049Z,60.08
2019-03-02T15:33:19.720Z,60.39
2019-03-02T15:35:50.432Z,59.74
2019-03-02T15:38:21.129Z,60.16
2019-03-02T15:40:51.940Z,59.99
2019-03-02T15:43:22.756Z,60.51
2019-03-02T15:45:55.409Z,59.93
2019-03-02T15:50:58.460Z,61.58
2019-03-02T15:58:24.710Z,61.09
2019-03-02T16:01:17.218Z,61.30
2019-03-02T16:03:47.923Z,60.93
2019-03-02T16:06:19.640Z,61.05
2019-03-02T16:13:49.572Z,61.34
2019-03-02T16:16:14.890Z,61.21
2019-03-02T16:18:49.186Z,60.83
2019-03-02T16:21:19.586Z,60.88
2019-03-02T16:23:50.942Z,60.83
2019-03-02T16:26:21.666Z,60.97
2019-03-02T16:28:52.378Z,61.16
2019-03-02T16:33:55.441Z,60.56
2019-03-02T16:36:26.314Z,60.83
2019-03-02T16:38:57.024Z,60.59
2019-03-02T16:41:31.163Z,60.85
2019-03-02T16:44:03.218Z,60.70
2019-03-02T16:46:35.101Z,60.68
2019-03-02T16:49:06.147Z,60.51
2019-03-02T16:51:36.995Z,60.84
2019-03-02T16:54:07.678Z,60.55
2019-03-02T16:59:10.844Z,59.97
2019-03-02T17:01:41.518Z,61.01
2019-03-02T17:06:30.856Z,59.75
2019-03-02T17:09:01.559Z,59.91
2019-03-02T17:11:35.481Z,59.56
2019-03-02T17:14:09.221Z,60.00
2019-03-02T17:19:10.099Z,60.42
2019-03-02T17:21:40.903Z,60.58
2019-03-02T17:24:11.609Z,60.98
2019-03-02T17:29:14.756Z,61.11
2019-03-02T17:31:45.453Z,61.08
2019-03-02T17:36:41.713Z,61.57
2019-03-02T17:39:11.205Z,61.43
2019-03-02T17:46:47.113Z,61.57
2019-03-02T17:49:28.210Z,61.90
2019-03-02T17:54:14.074Z,61.66
2019-03-02T17:59:04.183Z,61.93
2019-03-02T18:01:36.625Z,62.26
2019-03-02T18:04:07.320Z,62.47
2019-03-02T18:06:38.129Z,62.44
2019-03-02T18:09:08.835Z,62.82
2019-03-02T18:11:39.574Z,62.26
2019-03-02T18:14:10.265Z,62.69
2019-03-02T18:16:41.398Z,62.74
2019-03-02T18:18:53.674Z,62.97
2019-03-02T18:21:04.516Z,63.00
2019-03-02T18:23:18.951Z,63.31
2019-03-02T18:25:28.326Z,63.08
2019-03-02T18:27:39.151Z,63.18
2019-03-02T18:29:50.172Z,63.51
2019-03-02T18:32:02.271Z,63.53
2019-03-02T18:36:49.779Z,63.69
2019-03-02T18:39:00.973Z,63.57
2019-03-02T18:41:12.329Z,63.77
2019-03-02T18:43:24.351Z,63.72
2019-03-02T18:45:35.868Z,63.29
2019-03-02T18:47:47.948Z,63.49
2019-03-02T18:50:18.627Z,63.41
2019-03-02T18:52:49.336Z,63.87
2019-03-02T18:55:00.284Z,63.87
2019-03-02T18:57:13.198Z,63.87
2019-03-02T18:59:23.911Z,64.10
2019-03-02T19:02:16.388Z,64.41
2019-03-02T19:05:09.756Z,64.16
2019-03-02T19:07:21.500Z,64.35
2019-03-02T19:09:33.335Z,64.35
2019-03-02T19:11:45.049Z,64.18
2019-03-02T19:13:55.853Z,64.11
2019-03-02T19:16:06.662Z,64.37
2019-03-02T19:18:17.511Z,64.10
2019-03-02T19:20:28.339Z,64.40
2019-03-02T19:22:39.218Z,64.08
2019-03-02T19:24:50.157Z,64.08
2019-03-02T19:27:01.000Z,64.33
2019-03-02T19:29:11.836Z,64.26
2019-03-02T19:31:22.780Z,64.62
2019-03-02T19:33:33.711Z,64.50
2019-03-02T19:35:44.540Z,64.68
2019-03-02T19:37:55.357Z,64.78
2019-03-02T19:40:47.806Z,64.83
2019-03-02T19:42:58.748Z,64.77
2019-03-02T19:45:51.234Z,64.98
2019-03-02T19:48:02.071Z,65.10
2019-03-02T19:50:32.812Z,65.33
2019-03-02T19:52:43.751Z,65.71
2019-03-02T19:54:54.595Z,66.00
2019-03-02T19:57:05.467Z,66.54
2019-03-02T19:59:16.301Z,66.54
2019-03-02T20:01:27.082Z,66.77
2019-03-02T20:03:38.213Z,66.81
2019-03-02T20:05:49.022Z,67.23
2019-03-02T20:07:59.851Z,67.33
2019-03-02T20:10:52.329Z,67.68
2019-03-02T20:13:03.152Z,67.28
2019-03-02T20:15:55.675Z,67.44
2019-03-02T20:18:06.494Z,67.46
2019-03-02T20:20:58.954Z,67.49
2019-03-02T20:23:09.806Z,67.16
2019-03-02T20:25:20.648Z,67.68
2019-03-02T20:27:31.486Z,67.53
2019-03-02T20:29:42.278Z,67.11
2019-03-02T20:31:53.132Z,67.16
2019-03-02T20:34:04.048Z,68.22
2019-03-02T20:36:14.894Z,68.00
2019-03-02T20:38:25.827Z,66.08
2019-03-02T20:40:36.658Z,64.63
2019-03-02T20:42:47.491Z,63.88
2019-03-02T20:44:58.320Z,63.53
2019-03-02T20:47:09.149Z,64.17
2019-03-02T20:49:19.957Z,64.94
2019-03-02T20:51:30.768Z,65.65
2019-03-02T20:53:41.755Z,66.10
2019-03-02T20:55:52.553Z,66.53
2019-03-02T20:58:03.516Z,66.58
2019-03-02T21:00:34.988Z,66.63
2019-03-02T21:02:45.833Z,66.87
2019-03-02T21:04:56.630Z,67.25
2019-03-02T21:07:07.459Z,67.31
2019-03-02T21:09:18.385Z,67.35
2019-03-02T21:11:29.212Z,67.72
2019-03-02T21:13:40.144Z,67.53
2019-03-02T21:15:50.970Z,67.50
2019-03-02T21:18:02.183Z,67.78
2019-03-02T21:20:54.635Z,68.15
2019-03-02T21:23:05.673Z,68.27
2019-03-02T21:25:16.702Z,68.67
2019-03-02T21:27:27.542Z,68.63
2019-03-02T21:29:38.354Z,68.66
2019-03-02T21:31:49.181Z,68.50
2019-03-02T21:34:00.026Z,68.61
2019-03-02T21:36:10.946Z,68.97
2019-03-02T21:38:21.777Z,68.94
2019-03-02T21:41:14.229Z,69.10
2019-03-02T21:43:25.089Z,69.37
2019-03-02T21:45:36.009Z,69.44
2019-03-02T21:47:47.161Z,69.74
2019-03-02T21:49:57.998Z,69.57
2019-03-02T21:55:01.083Z,69.59
2019-03-02T21:57:12.042Z,69.66
2019-03-02T21:59:22.885Z,69.72
2019-03-02T22:01:33.736Z,69.35
2019-03-02T22:03:44.596Z,69.61
2019-03-02T22:05:55.399Z,69.45
2019-03-02T22:08:06.228Z,69.74
2019-03-02T22:10:58.696Z,70.03
2019-03-02T22:13:09.525Z,70.00
2019-03-02T22:15:20.349Z,70.07
2019-03-02T22:17:31.149Z,70.13
2019-03-02T22:19:41.977Z,70.11
2019-03-02T22:21:52.792Z,70.15
2019-03-02T22:24:03.703Z,70.38
2019-03-02T22:26:36.288Z,70.66
2019-03-02T22:28:47.131Z,70.61
2019-03-02T22:30:57.957Z,70.70
2019-03-02T22:33:08.767Z,70.98
2019-03-02T22:35:19.701Z,71.19
2019-03-02T22:37:30.502Z,71.48
2019-03-02T22:39:41.340Z,71.47
2019-03-02T22:41:52.182Z,71.65
2019-03-02T22:44:03.101Z,71.96
2019-03-02T22:46:13.923Z,71.82
2019-03-02T22:48:24.724Z,71.83
2019-03-02T22:50:35.565Z,71.83
2019-03-02T22:52:46.515Z,71.84
2019-03-02T22:54:57.431Z,71.88
2019-03-02T22:57:08.272Z,72.23
2019-03-02T22:59:19.083Z,72.15
2019-03-02T23:02:09.672Z,72.05
2019-03-02T23:04:20.451Z,72.11
2019-03-02T23:06:31.266Z,72.19
2019-03-02T23:08:42.130Z,72.24
2019-03-02T23:10:52.933Z,72.56
2019-03-02T23:13:03.738Z,72.39
2019-03-02T23:15:56.193Z,72.66
2019-03-02T23:18:07.117Z,72.94
2019-03-02T23:20:18.054Z,72.94
2019-03-02T23:22:28.874Z,73.08
2019-03-02T23:24:39.671Z,73.19
2019-03-02T23:26:50.513Z,73.17
2019-03-02T23:29:01.340Z,73.18
2019-03-02T23:31:12.139Z,73.07
2019-03-02T23:33:23.015Z,73.33
2019-03-02T23:35:33.941Z,73.38
2019-03-02T23:37:44.773Z,73.38
2019-03-02T23:39:55.579Z,73.34
2019-03-02T23:42:06.451Z,73.29
2019-03-02T23:44:17.249Z,73.20
2019-03-02T23:46:28.077Z,73.08
2019-03-02T23:48:38.887Z,73.07
2019-03-02T23:50:49.686Z,72.92
2019-03-02T23:53:00.522Z,72.65
2019-03-02T23:55:52.980Z,72.97
2019-03-02T23:58:45.443Z,72.83
